Time;durP1;ratioP1;P1;durP2;ratioP2;P2;SDS_P1;SDS_P2;PMS_P1;PMS_P2;Temp;Humidity;BMP_temperature;BMP_pressure;BME280_temperature;BME280_humidity;BME280_pressure;Samples;Min_cycle;Max_cycle;Signal;HPM_P1;HPM_P2
2022/04/10 00:03:19;;;;;;;;;;;8.30;45.30;;;6.51;50.32;100786.97;8380998;28;20357;-79
2022/04/10 00:07:41;;;;;;;;;;;8.00;45.30;;;6.40;50.35;100766.63;8366747;28;20003;-79
2022/04/10 00:12:03;;;;;;;;;;;8.00;45.30;;;6.33;50.51;100766.91;8394820;28;20122;-79
2022/04/10 00:16:25;;;;;;;;;;;8.20;45.50;;;6.35;50.03;100775.47;8393826;28;19920;-79
2022/04/10 00:20:47;;;;;;;;;;;8.10;45.50;;;6.27;50.68;100772.31;8362514;28;20027;-79
2022/04/10 00:25:10;;;;;;;;;;;8.00;45.50;;;6.09;50.68;100763.44;8382057;28;20441;-79
2022/04/10 00:29:31;;;;;;;;;;;8.00;45.70;;;6.08;50.14;100780.75;8380371;28;20003;-78
2022/04/10 00:33:53;;;;;;;;;;;7.60;45.60;;;6.03;50.83;100774.88;8376475;28;20011;-78
2022/04/10 00:38:15;;;;;;;;;;;7.60;45.60;;;5.91;50.21;100760.59;8393664;28;19928;-79
2022/04/10 00:42:40;;;;;;;;;;;7.80;46.00;;;6.01;50.13;100775.84;8392885;28;20011;-79
2022/04/10 00:47:03;;;;;;;;;;;7.70;45.80;;;5.92;50.55;100772.66;8378840;28;20010;-78
2022/04/10 00:56:05;;;;;;;;;;;7.60;45.70;;;5.79;50.73;100767.94;8359922;28;20032;-78
2022/04/10 01:00:27;;;;;;;;;;;7.90;46.00;;;5.76;50.79;100772.31;8367292;28;20292;-79
2022/04/10 01:04:49;;;;;;;;;;;7.40;46.10;;;5.67;51.04;100762.28;8395206;28;20003;-78
2022/04/10 01:09:11;;;;;;;;;;;7.50;46.20;;;5.80;50.29;100795.53;8391369;28;20007;-78
2022/04/10 01:13:33;;;;;;;;;;;7.60;46.30;;;5.73;50.51;100781.97;8379941;28;19999;-79
2022/04/10 01:17:56;;;;;;;;;;;7.60;46.20;;;5.63;50.96;100768.47;8373557;28;19954;-79
2022/04/10 01:22:26;;;;;;;;;;;7.60;46.20;;;5.58;50.73;100767.78;8379597;28;20027;-79
2022/04/10 01:26:50;;;;;;;;;;;7.50;46.20;;;5.71;51.01;100789.78;8379155;28;20082;-79
2022/04/10 01:31:16;;;;;;;;;;;7.50;46.20;;;5.57;50.79;100776.44;8378272;28;20038;-79
2022/04/10 01:35:39;;;;;;;;;;;7.50;46.40;;;5.52;51.02;100774.00;8392723;28;19920;-79
2022/04/10 01:40:04;;;;;;;;;;;7.50;46.10;;;5.59;51.16;100790.22;8379236;28;20019;-79
2022/04/10 01:44:26;;;;;;;;;;;7.50;46.70;;;5.49;51.14;100775.88;8371451;28;19999;-79
2022/04/10 01:48:48;;;;;;;;;;;7.40;46.60;;;5.59;51.09;100797.09;8378942;28;19999;-79
2022/04/10 01:53:11;;;;;;;;;;;7.40;46.70;;;5.59;50.72;100803.16;8357900;28;20455;-79
2022/04/10 01:57:32;;;;;;;;;;;7.30;46.50;;;5.52;50.81;100802.50;8356593;28;20289;-79
2022/04/10 02:01:54;;;;;;;;;;;7.40;46.40;;;5.49;50.80;100791.41;8379695;28;20011;-79
2022/04/10 02:06:17;;;;;;;;;;;7.40;46.70;;;5.47;51.41;100780.25;8362426;28;20015;-79
2022/04/10 02:10:42;;;;;;;;;;;7.30;46.50;;;5.58;51.06;100811.81;8367058;28;20457;-79
2022/04/10 02:15:04;;;;;;;;;;;7.40;46.50;;;5.43;51.32;100778.66;8385285;28;20011;-79
2022/04/10 02:19:26;;;;;;;;;;;7.30;46.40;;;5.51;51.45;100787.03;8383774;28;20015;-78
2022/04/10 02:23:48;;;;;;;;;;;7.30;46.40;;;5.49;50.95;100796.56;8382371;28;20011;-79
2022/04/10 02:28:10;;;;;;;;;;;7.50;46.80;;;5.48;51.07;100800.03;8382987;28;20385;-79
2022/04/10 02:32:32;;;;;;;;;;;7.40;46.50;;;5.53;51.20;100803.34;8364019;28;20015;-79
2022/04/10 02:36:55;;;;;;;;;;;7.40;46.40;;;5.30;51.02;100771.28;8369740;28;19921;-79
2022/04/10 02:41:17;;;;;;;;;;;7.30;46.40;;;5.41;50.92;100796.81;8379861;28;20023;-79
2022/04/10 02:45:41;;;;;;;;;;;7.30;46.20;;;5.30;50.99;100784.22;8369082;28;20003;-79
2022/04/10 02:50:06;;;;;;;;;;;7.30;46.30;;;5.46;51.10;100809.63;8381358;28;20015;-79
2022/04/10 02:54:29;;;;;;;;;;;7.30;46.40;;;5.47;50.78;100816.50;8368759;28;20011;-79
2022/04/10 02:58:50;;;;;;;;;;;7.30;46.60;;;5.36;51.06;100805.63;8394801;28;20342;-79
2022/04/10 03:03:13;;;;;;;;;;;7.30;46.60;;;5.44;51.14;100819.19;8364889;28;20011;-79
2022/04/10 03:07:35;;;;;;;;;;;7.20;46.50;;;5.47;50.75;100821.69;8391995;28;20007;-79
2022/04/10 03:11:58;;;;;;;;;;;7.30;46.50;;;5.50;51.04;100839.69;8381645;28;20008;-79
2022/04/10 03:16:20;;;;;;;;;;;7.30;46.60;;;5.48;50.89;100828.53;8362573;28;20023;-79
2022/04/10 03:20:42;;;;;;;;;;;7.40;46.60;;;5.40;51.00;100813.28;8347346;28;20365;-79
2022/04/10 03:25:04;;;;;;;;;;;7.30;46.60;;;5.41;51.50;100817.53;8368660;28;20019;-79
2022/04/10 03:29:26;;;;;;;;;;;7.30;46.50;;;5.51;51.22;100838.81;8367786;28;19926;-79
2022/04/10 03:33:49;;;;;;;;;;;7.30;46.60;;;5.53;51.31;100843.03;8349722;28;20015;-79
2022/04/10 03:38:11;;;;;;;;;;;7.30;46.70;;;5.57;51.24;100845.53;8366947;28;19921;-79
2022/04/10 03:42:40;;;;;;;;;;;7.30;46.80;;;5.45;51.34;100826.06;8381870;28;20365;-79
2022/04/10 03:47:04;;;;;;;;;;;7.40;46.90;;;5.50;51.50;100842.28;8365921;28;20028;-79
2022/04/10 03:51:27;;;;;;;;;;;7.40;46.90;;;5.61;51.30;100862.66;8365548;28;20362;-79
2022/04/10 03:55:49;;;;;;;;;;;7.50;47.30;;;5.56;51.52;100857.63;8365376;28;20297;-79
2022/04/10 04:00:13;;;;;;;;;;;7.60;47.10;;;5.64;51.24;100872.94;8372798;28;19916;-79
2022/04/10 04:04:46;;;;;;;;;;;7.40;46.80;;;5.62;51.48;100874.75;8350384;28;20003;-79
2022/04/10 04:09:09;;;;;;;;;;;7.40;46.80;;;5.62;51.46;100873.00;8392852;28;20010;-79
2022/04/10 04:13:36;;;;;;;;;;;7.50;46.60;;;5.61;51.19;100875.63;8364881;28;20003;-80
2022/04/10 04:17:58;;;;;;;;;;;7.50;46.60;;;5.63;51.27;100879.84;8370434;28;19963;-79
2022/04/10 04:22:20;;;;;;;;;;;7.50;46.80;;;5.68;51.81;100884.91;8365969;28;20007;-79
2022/04/10 04:26:42;;;;;;;;;;;7.40;47.00;;;5.66;51.86;100884.09;8350003;28;20019;-79
2022/04/10 04:31:05;;;;;;;;;;;7.50;46.70;;;5.74;51.27;100900.22;8367030;28;19923;-79
2022/04/10 04:35:28;;;;;;;;;;;7.60;47.10;;;5.73;51.70;100914.09;8379092;28;20008;-79
2022/04/10 04:39:53;;;;;;;;;;;7.60;46.90;;;5.79;51.04;100931.19;8350239;28;20113;-79
2022/04/10 04:44:16;;;;;;;;;;;7.60;47.10;;;5.67;51.75;100912.56;8375517;28;20036;-80
2022/04/10 04:48:39;;;;;;;;;;;7.70;47.00;;;5.71;51.50;100914.13;8370219;28;19999;-79
2022/04/10 04:53:01;;;;;;;;;;;7.60;47.00;;;5.72;51.77;100928.78;8363105;28;19966;-79
2022/04/10 04:57:24;;;;;;;;;;;7.70;48.00;;;5.77;51.81;100941.59;8362492;28;19921;-80
2022/04/10 05:01:47;;;;;;;;;;;7.60;47.20;;;5.77;51.80;100942.44;8377805;28;20015;-79
2022/04/10 05:06:11;;;;;;;;;;;7.70;47.90;;;5.61;51.82;100917.06;8351376;28;19932;-79
2022/04/10 05:10:36;;;;;;;;;;;7.70;47.50;;;5.73;51.74;100935.66;8374210;28;20011;-80
2022/04/10 05:15:00;;;;;;;;;;;7.80;47.50;;;5.76;51.63;100934.72;8378595;28;20019;-79
2022/04/10 05:19:23;;;;;;;;;;;7.60;47.20;;;5.88;51.83;100967.16;8377365;28;19920;-79
2022/04/10 05:23:47;;;;;;;;;;;7.70;47.20;;;5.76;51.31;100927.78;8364695;28;20007;-79
2022/04/10 05:28:14;;;;;;;;;;;7.70;47.20;;;5.93;51.58;100971.31;8375239;28;20008;-80
2022/04/10 05:32:42;;;;;;;;;;;7.80;47.00;;;6.00;51.51;100978.94;8367818;28;20006;-80
2022/04/10 05:37:05;;;;;;;;;;;7.70;47.10;;;6.03;51.98;100987.44;8346267;28;20373;-80
2022/04/10 05:41:30;;;;;;;;;;;7.80;46.90;;;6.09;51.60;100982.06;8358209;28;20405;-80
2022/04/10 05:45:57;;;;;;;;;;;7.90;46.90;;;5.98;51.94;100964.25;8370114;28;20014;-81
2022/04/10 05:50:20;;;;;;;;;;;7.90;46.80;;;6.12;51.68;100981.94;8382787;28;19922;-80
2022/04/10 05:54:43;;;;;;;;;;;7.90;46.80;;;6.24;51.35;100990.22;8370416;28;20337;-82
2022/04/10 05:59:05;;;;;;;;;;;8.00;46.80;;;6.21;51.80;100980.78;8384952;28;19920;-81
2022/04/10 06:03:27;;;;;;;;;;;8.10;46.80;;;6.20;51.76;100985.13;8364616;28;20003;-81
2022/04/10 06:07:52;;;;;;;;;;;8.10;47.00;;;6.18;51.74;100981.78;8367717;28;20007;-80
2022/04/10 06:12:14;;;;;;;;;;;8.10;47.10;;;6.31;51.93;101010.72;8383904;28;20333;-80
2022/04/10 06:16:39;;;;;;;;;;;8.10;46.80;;;6.29;52.07;101006.47;8375146;28;20019;-80
2022/04/10 06:21:01;;;;;;;;;;;8.20;46.80;;;6.22;51.44;100989.44;8383694;28;20019;-80
2022/04/10 06:25:24;;;;;;;;;;;8.20;46.90;;;6.46;51.91;101024.09;8368567;28;20353;-80
2022/04/10 06:29:47;;;;;;;;;;;8.20;46.80;;;6.45;51.29;101018.03;8370956;28;20010;-81
2022/04/10 06:34:09;;;;;;;;;;;8.30;46.90;;;6.51;52.16;101028.25;8382516;28;20023;-82
2022/04/10 06:38:32;;;;;;;;;;;8.40;46.90;;;6.45;51.89;101025.81;8375554;28;20023;-82
2022/04/10 06:43:09;;;;;;;;;;;8.40;47.00;;;6.56;51.75;101044.50;8374082;28;20051;-79
2022/04/10 06:48:03;;;;;;;;;;;8.40;47.00;;;6.55;51.30;101040.19;8364784;28;20019;-82
2022/04/10 06:52:36;;;;;;;;;;;8.40;47.00;;;6.53;51.88;101033.34;8377547;28;20456;-80
2022/04/10 06:56:58;;;;;;;;;;;8.40;46.90;;;6.61;52.04;101049.50;8367804;28;19921;-80
2022/04/10 07:01:20;;;;;;;;;;;8.40;47.10;;;6.64;51.91;101057.19;8382667;28;19995;-80
2022/04/10 07:05:44;;;;;;;;;;;8.50;47.10;;;6.59;51.44;101044.41;8378788;28;20020;-80
2022/04/10 07:10:14;;;;;;;;;;;8.50;47.10;;;6.69;51.75;101059.63;8381301;28;20432;-79
2022/04/10 07:14:37;;;;;;;;;;;8.50;47.00;;;6.79;52.01;101066.22;8365272;28;20011;-81
2022/04/10 07:19:00;;;;;;;;;;;8.50;47.00;;;6.80;51.51;101058.38;8367362;28;20011;-80
2022/04/10 07:23:43;;;;;;;;;;;8.60;47.10;;;6.99;51.58;101075.91;8360242;28;19999;-81
2022/04/10 07:28:12;;;;;;;;;;;8.70;47.20;;;7.01;51.80;101064.56;8349541;28;20015;-80
2022/04/10 07:32:39;;;;;;;;;;;8.80;47.10;;;7.12;51.67;101078.94;8379897;28;20457;-82
2022/04/10 07:37:10;;;;;;;;;;;8.90;46.90;;;7.05;52.14;101057.53;8381476;28;19924;-80
2022/04/10 07:41:42;;;;;;;;;;;8.80;46.90;;;7.06;51.60;101054.88;8380332;28;20007;-80
2022/04/10 07:51:03;;;;;;;;;;;9.10;46.90;;;7.28;52.11;101093.06;8369908;28;20410;-81
2022/04/10 07:55:42;;;;;;;;;;;9.10;46.80;;;7.34;52.06;101092.84;8362985;28;20022;-80
2022/04/10 08:00:05;;;;;;;;;;;9.20;46.70;;;7.34;51.46;101084.22;8377920;28;20011;-81
2022/04/10 08:04:44;;;;;;;;;;;9.20;46.90;;;7.43;51.85;101099.50;8352688;28;20357;-80
2022/04/10 08:09:26;;;;;;;;;;;9.20;46.70;;;7.33;51.56;101080.78;8344901;28;20026;-79
2022/04/10 08:13:48;;;;;;;;;;;9.30;46.60;;;7.49;51.51;101114.84;8380848;28;20023;-80
2022/04/10 08:18:10;;;;;;;;;;;9.20;46.70;;;7.47;51.82;101117.50;8386934;28;19920;-79
2022/04/10 08:22:33;;;;;;;;;;;9.30;46.70;;;7.57;51.74;101123.22;8366249;28;20094;-82
2022/04/10 08:26:55;;;;;;;;;;;9.30;46.60;;;7.59;51.61;101117.94;8376623;28;19992;-80
2022/04/10 08:31:17;;;;;;;;;;;9.40;46.50;;;7.51;51.58;101111.28;8395617;28;20011;-81
2022/04/10 08:35:41;;;;;;;;;;;9.40;46.50;;;7.44;52.00;101112.41;8393694;28;21539;-81
2022/04/10 08:40:03;;;;;;;;;;;9.50;46.50;;;7.65;51.36;101148.94;8392957;28;20316;-84
2022/04/10 08:44:25;;;;;;;;;;;9.50;46.50;;;7.70;51.59;101153.06;8342242;28;19920;-82
2022/04/10 08:48:49;;;;;;;;;;;9.50;46.60;;;7.75;51.99;101145.94;8327642;28;19968;-83
2022/04/10 08:53:11;;;;;;;;;;;9.50;46.50;;;7.82;51.81;101145.72;8339787;28;19920;-84
2022/04/10 08:57:32;;;;;;;;;;;9.60;46.50;;;7.85;51.96;101140.38;8371245;28;19924;-86
2022/04/10 09:01:56;;;;;;;;;;;9.70;46.60;;;7.95;51.90;101133.94;8344645;28;19921;-83
2022/04/10 09:06:17;;;;;;;;;;;9.70;46.80;;;8.24;51.59;101150.22;8348063;28;20292;-84
2022/04/10 09:10:59;;;;;;;;;;;9.90;46.70;;;8.36;51.75;101160.13;8358066;28;19956;-80
2022/04/10 09:15:30;;;;;;;;;;;10.10;46.60;;;8.41;51.72;101153.03;8377136;28;20423;-81
2022/04/10 09:19:53;;;;;;;;;;;10.30;46.40;;;8.56;51.92;101142.00;8377391;28;20286;-80
2022/04/10 09:24:15;;;;;;;;;;;10.30;46.30;;;8.66;51.74;101136.41;8390918;28;19921;-83
2022/04/10 09:28:42;;;;;;;;;;;10.40;46.20;;;8.59;51.40;101123.66;8391325;28;19926;-84
2022/04/10 09:33:04;;;;;;;;;;;10.50;46.10;;;8.77;51.44;101148.06;8377675;28;20372;-84
2022/04/10 09:37:27;;;;;;;;;;;10.60;45.60;;;8.67;51.47;101138.09;8370520;28;20392;-83
2022/04/10 09:42:00;;;;;;;;;;;10.60;45.80;;;8.76;51.41;101161.19;8362086;28;20773;-82
2022/04/10 09:46:22;;;;;;;;;;;10.60;46.00;;;8.74;51.32;101169.03;8357182;28;19924;-82
2022/04/10 09:50:44;;;;;;;;;;;10.60;46.20;;;8.77;51.98;101155.06;8363983;28;20391;-84
2022/04/10 09:55:08;;;;;;;;;;;10.50;46.40;;;8.90;51.27;101151.03;8389425;28;19920;-82
2022/04/10 09:59:45;;;;;;;;;;;10.60;46.60;;;8.84;51.56;101131.31;8373738;28;20138;-84
2022/04/10 10:04:07;;;;;;;;;;;10.70;46.50;;;8.94;51.47;101138.72;8377925;28;19920;-84
2022/04/10 10:08:28;;;;;;;;;;;10.80;46.30;;;9.09;51.86;101170.19;8376454;28;20034;-85
2022/04/10 10:12:51;;;;;;;;;;;10.80;46.20;;;9.02;51.20;101202.63;8374845;28;19950;-84
2022/04/10 10:17:13;;;;;;;;;;;10.80;46.20;;;8.74;51.77;101168.19;8362847;28;20009;-82
2022/04/10 10:21:35;;;;;;;;;;;10.80;46.40;;;8.47;51.24;101139.75;8357633;28;19927;-82
2022/04/10 10:26:37;;;;;;;;;;;10.60;45.90;;;8.66;51.51;101173.72;8346191;28;19943;-82
2022/04/10 10:31:29;;;;;;;;;;;10.50;46.10;;;8.70;51.52;101162.28;8373774;28;19920;-82
2022/04/10 10:35:54;;;;;;;;;;;10.40;46.70;;;8.85;51.87;101153.81;8371673;28;20312;-83
2022/04/10 10:40:19;;;;;;;;;;;10.50;47.20;;;9.00;51.80;101136.72;8388712;28;19931;-82
2022/04/10 10:44:46;;;;;;;;;;;10.70;47.50;;;9.33;52.06;101140.56;8386283;28;19935;-79
2022/04/10 10:49:18;;;;;;;;;;;10.90;47.30;;;9.53;51.18;101140.53;8387952;28;19926;-81
2022/04/10 10:53:48;;;;;;;;;;;11.00;47.00;;;9.57;51.45;101126.44;8387181;28;19936;-81
2022/04/10 10:58:13;;;;;;;;;;;11.30;46.30;;;9.74;51.38;101129.13;8385840;28;19935;-81
2022/04/10 11:02:37;;;;;;;;;;;11.50;45.50;;;9.75;51.67;101112.59;8377951;28;19920;-83
2022/04/10 11:07:18;;;;;;;;;;;11.60;45.50;;;10.07;51.35;101149.41;8364187;28;19927;-81
2022/04/10 11:11:40;;;;;;;;;;;11.60;45.70;;;9.97;51.55;101101.16;8352910;28;20282;-81
2022/04/10 11:16:10;;;;;;;;;;;11.90;45.60;;;10.33;51.49;101136.91;8366834;28;19920;-82
2022/04/10 11:20:32;;;;;;;;;;;12.00;45.00;;;10.38;51.62;101114.03;8358472;28;20364;-84
2022/04/10 11:24:57;;;;;;;;;;;11.90;45.00;;;10.66;51.29;101149.25;8371416;28;19936;-83
2022/04/10 11:29:24;;;;;;;;;;;12.40;45.40;;;10.87;51.03;101152.59;8365330;28;20446;-80
2022/04/10 11:33:48;;;;;;;;;;;12.50;44.90;;;10.99;51.40;101151.97;8363490;28;20718;-82
2022/04/10 11:38:12;;;;;;;;;;;12.70;44.20;;;11.06;50.91;101148.97;8360655;28;19930;-84
2022/04/10 11:42:34;;;;;;;;;;;12.80;44.60;;;11.22;50.96;101163.88;8328583;28;20383;-83
2022/04/10 11:46:58;;;;;;;;;;;13.00;43.60;;;11.10;50.70;101135.75;8348393;28;20266;-83
2022/04/10 11:51:19;;;;;;;;;;;13.00;44.70;;;11.19;50.95;101157.03;8369757;28;19927;-83
2022/04/10 11:55:46;;;;;;;;;;;13.00;44.50;;;11.13;50.69;101173.03;8369061;28;19924;-82
2022/04/10 12:00:10;;;;;;;;;;;13.00;44.50;;;10.90;51.11;101174.19;8366053;28;19925;-81
2022/04/10 12:04:35;;;;;;;;;;;12.90;44.10;;;10.40;50.62;101114.81;8370306;28;19926;-81
2022/04/10 12:08:57;;;;;;;;;;;12.80;44.50;;;10.76;50.62;101203.59;8353169;28;19926;-82
2022/04/10 12:13:19;;;;;;;;;;;12.60;44.60;;;10.43;50.57;101164.28;8364349;28;20365;-80
2022/04/10 12:17:41;;;;;;;;;;;12.50;44.70;;;10.44;50.74;101201.69;8379832;28;19936;-82
2022/04/10 12:22:04;;;;;;;;;;;12.30;44.70;;;10.27;50.71;101184.16;8355336;28;19924;-84
2022/04/10 12:26:26;;;;;;;;;;;12.20;44.90;;;10.15;50.67;101165.56;8362521;28;19927;-84
2022/04/10 12:30:48;;;;;;;;;;;11.90;45.10;;;10.22;50.67;101186.13;8371527;28;19924;-84
2022/04/10 12:35:12;;;;;;;;;;;11.90;45.40;;;10.15;50.63;101176.00;8356876;28;19948;-84
2022/04/10 12:39:33;;;;;;;;;;;11.90;45.80;;;10.22;50.79;101186.13;8335850;28;19924;-84
2022/04/10 12:44:00;;;;;;;;;;;11.90;46.00;;;10.15;50.66;101167.28;8363281;28;19926;-84
2022/04/10 12:48:23;;;;;;;;;;;11.90;46.10;;;10.21;50.38;101180.06;8351459;28;19920;-84
2022/04/10 12:52:46;;;;;;;;;;;11.90;46.10;;;10.23;50.97;101172.16;8354932;28;19924;-84
2022/04/10 12:57:10;;;;;;;;;;;11.80;46.10;;;10.24;51.16;101163.44;8368317;28;19920;-83
2022/04/10 13:01:33;;;;;;;;;;;11.90;46.10;;;10.26;50.79;101165.06;8354466;28;19929;-84
2022/04/10 13:06:07;;;;;;;;;;;11.90;46.20;;;10.27;51.05;101148.50;8333859;28;19920;-84
2022/04/10 13:10:29;;;;;;;;;;;12.00;46.20;;;10.37;50.97;101146.31;8348922;28;19925;-84
2022/04/10 13:14:51;;;;;;;;;;;12.00;46.20;;;10.58;50.67;101166.13;8381747;28;19931;-84
2022/04/10 13:19:20;;;;;;;;;;;12.20;45.50;;;10.59;50.65;101160.00;8368786;28;20297;-84
2022/04/10 13:23:41;;;;;;;;;;;12.20;45.70;;;10.67;51.01;101162.25;8383233;28;19928;-83
2022/04/10 13:28:05;;;;;;;;;;;12.30;45.50;;;10.69;50.97;101183.91;8368005;28;19924;-83
2022/04/10 13:32:27;;;;;;;;;;;12.40;45.20;;;10.43;50.49;101166.88;8353778;28;19924;-84
2022/04/10 13:36:49;;;;;;;;;;;12.30;44.80;;;10.55;50.79;101213.28;8354065;28;19920;-83
2022/04/10 13:41:11;;;;;;;;;;;12.20;44.90;;;10.45;50.75;101212.06;8382575;28;19958;-83
2022/04/10 13:45:32;;;;;;;;;;;12.30;45.10;;;10.26;50.57;101191.16;8381941;28;19920;-83
2022/04/10 13:49:54;;;;;;;;;;;12.20;45.20;;;10.32;50.61;101214.38;8380946;28;20498;-89
2022/04/10 13:54:15;;;;;;;;;;;12.10;45.90;;;10.34;50.77;101216.91;8369581;28;19921;-83
2022/04/10 13:58:37;;;;;;;;;;;12.00;45.80;;;10.37;51.02;101196.75;8380385;28;19925;-84
2022/04/10 14:03:02;;;;;;;;;;;12.00;45.90;;;10.40;51.25;101204.44;8341480;28;19936;-84
2022/04/10 14:07:24;;;;;;;;;;;12.00;45.90;;;10.40;50.72;101185.31;8352645;28;19921;-83
2022/04/10 14:11:47;;;;;;;;;;;12.00;46.30;;;10.43;51.18;101179.94;8373939;28;19926;-83
2022/04/10 14:16:09;;;;;;;;;;;12.10;46.00;;;10.44;50.86;101179.00;8347661;28;19921;-83
2022/04/10 14:20:32;;;;;;;;;;;12.10;46.00;;;10.45;50.93;101167.66;8362656;28;19931;-83
2022/04/10 14:24:54;;;;;;;;;;;12.10;45.90;;;10.60;51.04;101174.75;8373580;28;19920;-83
2022/04/10 14:29:15;;;;;;;;;;;12.20;45.80;;;10.62;51.02;101165.09;8362087;28;20009;-82
2022/04/10 14:33:37;;;;;;;;;;;12.30;45.60;;;10.65;50.68;101158.03;8387656;28;19920;-84
2022/04/10 14:37:58;;;;;;;;;;;12.20;45.40;;;10.74;51.17;101173.25;8385509;28;20373;-83
2022/04/10 14:42:20;;;;;;;;;;;12.30;45.40;;;10.86;50.64;101177.88;8359858;28;20027;-82
2022/04/10 14:46:42;;;;;;;;;;;12.30;45.30;;;10.80;50.95;101163.34;8382845;28;19951;-83
2022/04/10 14:51:03;;;;;;;;;;;12.50;45.20;;;10.74;50.33;101154.97;8391963;28;20438;-83
2022/04/10 14:55:25;;;;;;;;;;;12.60;45.40;;;10.81;50.12;101159.81;8393801;28;20334;-84
2022/04/10 14:59:47;;;;;;;;;;;12.60;45.50;;;10.84;50.18;101166.66;8391560;28;19920;-83
2022/04/10 15:04:10;;;;;;;;;;;12.60;45.40;;;10.82;50.98;101202.44;8394804;28;20022;-83
2022/04/10 15:08:31;;;;;;;;;;;12.60;45.20;;;10.75;50.62;101222.81;8378056;28;19922;-84
2022/04/10 15:12:56;;;;;;;;;;;12.80;44.50;;;10.44;50.48;101202.50;8380208;28;20011;-82
2022/04/10 15:17:18;;;;;;;;;;;12.50;44.60;;;10.45;50.18;101234.69;8377234;28;20457;-84
2022/04/10 15:21:40;;;;;;;;;;;12.30;44.80;;;10.31;50.73;101230.09;8393332;28;20003;-84
2022/04/10 15:26:03;;;;;;;;;;;12.10;44.90;;;10.19;50.54;101218.44;8377449;28;19920;-83
2022/04/10 15:30:28;;;;;;;;;;;12.00;44.90;;;10.14;50.16;101231.69;8375288;28;20006;-83
2022/04/10 15:34:49;;;;;;;;;;;11.80;45.00;;;9.93;50.72;101223.06;8341364;28;19920;-83
2022/04/10 15:39:11;;;;;;;;;;;12.00;45.30;;;10.06;50.90;101246.84;8333653;28;19924;-83
2022/04/10 15:43:34;;;;;;;;;;;11.70;45.40;;;10.00;50.96;101244.53;8368192;28;20382;-83
2022/04/10 15:47:56;;;;;;;;;;;11.30;45.30;;;9.93;50.76;101233.50;8363535;28;20399;-83
2022/04/10 15:52:17;;;;;;;;;;;11.70;45.70;;;10.03;50.32;101235.72;8328590;28;19927;-83
2022/04/10 15:56:39;;;;;;;;;;;11.60;45.60;;;9.91;50.98;101213.59;8353262;28;19924;-83
2022/04/10 16:01:01;;;;;;;;;;;11.70;45.70;;;10.02;50.97;101216.59;8383521;28;19924;-83
2022/04/10 16:05:24;;;;;;;;;;;11.70;45.70;;;10.07;50.53;101214.63;8361324;28;19925;-83
2022/04/10 16:09:46;;;;;;;;;;;11.60;45.60;;;10.26;50.93;101245.09;8383004;28;19936;-82
2022/04/10 16:14:07;;;;;;;;;;;11.80;45.60;;;10.10;50.33;101232.75;8384997;28;20351;-82
2022/04/10 16:18:29;;;;;;;;;;;11.80;45.40;;;10.06;50.68;101227.75;8378311;28;19925;-83
2022/04/10 16:22:50;;;;;;;;;;;11.80;45.20;;;10.13;50.81;101276.13;8356820;28;19920;-83
2022/04/10 16:31:52;;;;;;;;;;;11.80;45.40;;;9.92;50.52;101270.94;8352634;28;19924;-82
2022/04/10 16:36:14;;;;;;;;;;;11.70;45.50;;;9.74;50.23;101227.41;8374672;28;19927;-82
2022/04/10 16:40:37;;;;;;;;;;;11.60;45.70;;;9.93;50.83;101274.38;8384517;28;20377;-82
2022/04/10 16:44:59;;;;;;;;;;;11.60;45.70;;;9.87;50.49;101274.66;8368221;28;19920;-82
2022/04/10 16:49:20;;;;;;;;;;;11.50;45.60;;;9.81;50.63;101285.38;8364222;28;19924;-82
2022/04/10 16:53:42;;;;;;;;;;;11.40;45.60;;;9.81;50.54;101301.03;8367098;28;19928;-81
2022/04/10 16:58:04;;;;;;;;;;;11.40;45.70;;;9.76;50.66;101285.56;8384366;28;19938;-82
2022/04/10 17:02:27;;;;;;;;;;;11.30;45.70;;;9.78;50.54;101295.94;8370153;28;19921;-82
2022/04/10 17:06:48;;;;;;;;;;;11.40;45.80;;;9.66;50.35;101274.66;8384728;28;19924;-82
2022/04/10 17:11:11;;;;;;;;;;;11.30;45.80;;;9.42;50.45;101252.22;8384127;28;19931;-82
2022/04/10 17:15:33;;;;;;;;;;;11.30;45.80;;;9.74;50.35;101308.25;8367466;28;20442;-82
2022/04/10 17:19:55;;;;;;;;;;;11.20;45.80;;;9.26;50.77;101221.63;8355536;28;19951;-82
2022/04/10 17:24:16;;;;;;;;;;;11.20;45.80;;;9.52;50.40;101274.41;8382514;28;19924;-84
2022/04/10 17:28:38;;;;;;;;;;;11.30;45.80;;;9.62;50.43;101317.44;8365038;28;19926;-83
2022/04/10 17:33:00;;;;;;;;;;;11.10;45.80;;;9.73;50.45;101388.25;8358863;28;19948;-82
2022/04/10 17:37:21;;;;;;;;;;;11.30;46.40;;;9.51;50.87;101357.00;8361528;28;19926;-81
2022/04/10 17:41:44;;;;;;;;;;;11.30;45.60;;;9.20;50.94;101359.97;8372322;28;20354;-86
2022/04/10 17:46:05;;;;;;;;;;;11.00;45.20;;;9.01;50.68;101346.81;8384055;28;19926;-84
2022/04/10 17:50:27;;;;;;;;;;;10.90;45.30;;;8.93;50.86;101348.84;8384264;28;19955;-84
2022/04/10 17:54:48;;;;;;;;;;;10.70;45.40;;;8.92;50.52;101354.13;8347384;28;19920;-84
2022/04/10 17:59:10;;;;;;;;;;;10.60;45.70;;;8.97;50.64;101371.28;8362949;28;19924;-85
2022/04/10 18:03:32;;;;;;;;;;;10.60;45.70;;;8.88;50.78;101371.63;8373805;28;19924;-84
2022/04/10 18:07:55;;;;;;;;;;;10.50;45.70;;;8.92;50.67;101377.59;8352948;28;19924;-86
2022/04/10 18:12:17;;;;;;;;;;;10.40;45.80;;;8.91;50.47;101386.28;8360602;28;20404;-85
2022/04/10 18:16:38;;;;;;;;;;;10.40;45.90;;;8.84;50.68;101377.88;8372574;28;20395;-85
2022/04/10 18:21:00;;;;;;;;;;;10.40;46.00;;;8.88;50.90;101399.44;8371617;28;20292;-85
2022/04/10 18:25:22;;;;;;;;;;;10.50;46.40;;;8.72;50.82;101404.34;8352326;28;20002;-85
2022/04/10 18:29:47;;;;;;;;;;;10.40;46.00;;;8.62;50.76;101402.09;8369934;28;19935;-85
2022/04/10 18:34:09;;;;;;;;;;;10.30;45.90;;;8.58;50.61;101413.50;8372275;28;19938;-85
2022/04/10 18:38:31;;;;;;;;;;;10.10;45.90;;;8.47;50.48;101396.56;8352236;28;19925;-85
2022/04/10 18:42:52;;;;;;;;;;;10.10;46.00;;;8.53;50.77;101417.16;8369274;28;19924;-85
2022/04/10 18:47:14;;;;;;;;;;;10.10;46.10;;;8.41;50.95;101411.50;8368926;28;19920;-84
2022/04/10 18:51:36;;;;;;;;;;;10.00;46.10;;;8.36;50.89;101404.72;8380381;28;20006;-85
2022/04/10 18:55:57;;;;;;;;;;;9.90;46.00;;;8.29;50.70;101427.53;8361748;28;19935;-85
2022/04/10 19:00:19;;;;;;;;;;;9.90;46.10;;;8.12;50.90;101403.81;8387316;28;19946;-84
2022/04/10 19:04:42;;;;;;;;;;;9.90;46.40;;;8.20;50.80;101444.28;8362234;28;19950;-84
2022/04/10 19:09:03;;;;;;;;;;;9.90;46.30;;;8.14;50.57;101459.25;8361960;28;19943;-83
2022/04/10 19:13:25;;;;;;;;;;;9.80;46.20;;;8.07;50.97;101452.53;8392575;28;19923;-84
2022/04/10 19:17:47;;;;;;;;;;;9.70;46.20;;;8.01;50.78;101461.41;8348031;28;19916;-84
2022/04/10 19:22:08;;;;;;;;;;;9.70;46.50;;;7.94;50.83;101449.53;8362180;28;20448;-84
2022/04/10 19:26:30;;;;;;;;;;;9.60;46.40;;;8.06;50.79;101469.06;8351582;28;20433;-85
2022/04/10 19:30:52;;;;;;;;;;;9.60;46.50;;;8.05;51.24;101477.78;8374106;28;20456;-85
2022/04/10 19:35:14;;;;;;;;;;;9.60;46.50;;;7.93;50.93;101459.03;8374035;28;19923;-86
2022/04/10 19:39:37;;;;;;;;;;;9.60;46.50;;;7.83;51.33;101449.00;8372608;28;19930;-86
2022/04/10 19:43:58;;;;;;;;;;;9.60;46.70;;;7.82;51.10;101461.16;8367610;28;19935;-86
2022/04/10 19:48:20;;;;;;;;;;;9.50;46.40;;;7.84;50.96;101474.13;8390642;28;19916;-86
2022/04/10 19:57:21;;;;;;;;;;;9.30;46.30;;;7.80;51.04;101493.28;8365166;28;20437;-87
2022/04/10 20:01:43;;;;;;;;;;;9.40;46.40;;;7.68;51.17;101476.34;8375355;28;20498;-86
2022/04/10 20:06:08;;;;;;;;;;;9.40;46.50;;;7.66;51.41;101483.31;8350288;28;20179;-86
2022/04/10 20:10:30;;;;;;;;;;;9.30;46.40;;;7.65;51.23;101481.63;8348590;28;19916;-87
2022/04/10 20:14:52;;;;;;;;;;;9.30;46.50;;;7.60;50.95;101478.31;8373719;28;19916;-86
2022/04/10 20:19:13;;;;;;;;;;;9.30;46.50;;;7.58;51.06;101480.09;8363495;28;19924;-88
2022/04/10 20:23:35;;;;;;;;;;;9.30;46.50;;;7.59;51.42;101474.00;8350488;28;19999;-87
2022/04/10 20:27:57;;;;;;;;;;;9.30;46.50;;;7.66;50.75;101496.31;8361446;28;19917;-86
2022/04/10 20:32:19;;;;;;;;;;;9.20;46.50;;;7.62;51.35;101499.94;8375980;28;19916;-86
2022/04/10 20:36:40;;;;;;;;;;;9.40;46.60;;;7.51;51.55;101477.72;8375718;28;20007;-87